sensor_id;sensor_type;location;lat;lon;timestamp;pressure;altitude;pressure_sealevel;temperature
13410;BMP180;6775;49.574;11.170;2024-01-15T00:01:04;96291.72;;;-1.87
13410;BMP180;6775;49.574;11.170;2024-01-15T00:03:32;96286.78;;;-1.89
13410;BMP180;6775;49.574;11.170;2024-01-15T00:06:00;96287.69;;;-1.90
13410;BMP180;6775;49.574;11.170;2024-01-15T00:08:29;96294.34;;;-1.89
13410;BMP180;6775;49.574;11.170;2024-01-15T00:10:57;96301.31;;;-1.94
13410;BMP180;6775;49.574;11.170;2024-01-15T00:13:25;96293.91;;;-1.97
13410;BMP180;6775;49.574;11.170;2024-01-15T00:15:53;96299.91;;;-1.99
13410;BMP180;6775;49.574;11.170;2024-01-15T00:18:23;96299.19;;;-2.01
13410;BMP180;6775;49.574;11.170;2024-01-15T00:20:51;96302.44;;;-1.99
13410;BMP180;6775;49.574;11.170;2024-01-15T00:23:19;96296.19;;;-1.92
13410;BMP180;6775;49.574;11.170;2024-01-15T00:25:47;96289.38;;;-1.90
13410;BMP180;6775;49.574;11.170;2024-01-15T00:28:15;96286.78;;;-1.89
13410;BMP180;6775;49.574;11.170;2024-01-15T00:30:44;96294.25;;;-1.87
13410;BMP180;6775;49.574;11.170;2024-01-15T00:33:12;96284.19;;;-1.87
13410;BMP180;6775;49.574;11.170;2024-01-15T00:35:43;96292.81;;;-1.91
13410;BMP180;6775;49.574;11.170;2024-01-15T00:38:11;96291.00;;;-1.89
13410;BMP180;6775;49.574;11.170;2024-01-15T00:40:39;96275.91;;;-1.89
13410;BMP180;6775;49.574;11.170;2024-01-15T00:43:07;96269.06;;;-1.87
13410;BMP180;6775;49.574;11.170;2024-01-15T00:45:35;96280.94;;;-1.89
13410;BMP180;6775;49.574;11.170;2024-01-15T00:48:04;96265.03;;;-1.90
13410;BMP180;6775;49.574;11.170;2024-01-15T00:50:33;96258.59;;;-1.95
13410;BMP180;6775;49.574;11.170;2024-01-15T00:53:03;96251.19;;;-1.98
13410;BMP180;6775;49.574;11.170;2024-01-15T00:55:31;96252.09;;;-1.99
13410;BMP180;6775;49.574;11.170;2024-01-15T00:57:59;96257.88;;;-1.97
13410;BMP180;6775;49.574;11.170;2024-01-15T01:00:27;96269.78;;;-2.01
13410;BMP180;6775;49.574;11.170;2024-01-15T01:02:56;96273.69;;;-1.95
13410;BMP180;6775;49.574;11.170;2024-01-15T01:05:24;96283.47;;;-1.89
13410;BMP180;6775;49.574;11.170;2024-01-15T01:07:52;96286.13;;;-1.92
13410;BMP180;6775;49.574;11.170;2024-01-15T01:10:22;96284.66;;;-1.96
13410;BMP180;6775;49.574;11.170;2024-01-15T01:12:50;96295.25;;;-1.90
13410;BMP180;6775;49.574;11.170;2024-01-15T01:15:18;96288.41;;;-1.88
13410;BMP180;6775;49.574;11.170;2024-01-15T01:17:46;96273.84;;;-1.81
13410;BMP180;6775;49.574;11.170;2024-01-15T01:20:15;96269.44;;;-1.78
13410;BMP180;6775;49.574;11.170;2024-01-15T01:22:45;96268.78;;;-1.81
13410;BMP180;6775;49.574;11.170;2024-01-15T01:25:13;96272.84;;;-1.79
13410;BMP180;6775;49.574;11.170;2024-01-15T01:27:43;96265.44;;;-1.82
13410;BMP180;6775;49.574;11.170;2024-01-15T01:30:11;96267.00;;;-1.79
13410;BMP180;6775;49.574;11.170;2024-01-15T01:32:40;96263.59;;;-1.78
13410;BMP180;6775;49.574;11.170;2024-01-15T01:35:08;96264.56;;;-1.81
13410;BMP180;6775;49.574;11.170;2024-01-15T01:37:36;96267.16;;;-1.82
13410;BMP180;6775;49.574;11.170;2024-01-15T01:40:06;96272.03;;;-1.79
13410;BMP180;6775;49.574;11.170;2024-01-15T01:42:35;96256.41;;;-1.86
13410;BMP180;6775;49.574;11.170;2024-01-15T01:45:06;96258.19;;;-1.88
13410;BMP180;6775;49.574;11.170;2024-01-15T01:47:34;96251.44;;;-1.87
13410;BMP180;6775;49.574;11.170;2024-01-15T01:50:03;96249.59;;;-1.84
13410;BMP180;6775;49.574;11.170;2024-01-15T01:52:32;96236.78;;;-1.79
13410;BMP180;6775;49.574;11.170;2024-01-15T01:55:03;96245.88;;;-1.77
13410;BMP180;6775;49.574;11.170;2024-01-15T01:57:33;96250.94;;;-1.77
13410;BMP180;6775;49.574;11.170;2024-01-15T02:00:05;96252.53;;;-1.76
13410;BMP180;6775;49.574;11.170;2024-01-15T02:02:34;96254.97;;;-1.74
13410;BMP180;6775;49.574;11.170;2024-01-15T02:05:05;96253.13;;;-1.71
13410;BMP180;6775;49.574;11.170;2024-01-15T02:07:35;96249.66;;;-1.68
13410;BMP180;6775;49.574;11.170;2024-01-15T02:10:04;96250.28;;;-1.65
13410;BMP180;6775;49.574;11.170;2024-01-15T02:12:33;96261.16;;;-1.64
13410;BMP180;6775;49.574;11.170;2024-01-15T02:15:01;96258.44;;;-1.60
13410;BMP180;6775;49.574;11.170;2024-01-15T02:17:31;96258.13;;;-1.54
13410;BMP180;6775;49.574;11.170;2024-01-15T02:19:59;96257.44;;;-1.57
13410;BMP180;6775;49.574;11.170;2024-01-15T02:22:27;96255.25;;;-1.63
13410;BMP180;6775;49.574;11.170;2024-01-15T02:24:57;96246.22;;;-1.67
13410;BMP180;6775;49.574;11.170;2024-01-15T02:27:25;96244.59;;;-1.68
13410;BMP180;6775;49.574;11.170;2024-01-15T02:29:54;96240.06;;;-1.62
13410;BMP180;6775;49.574;11.170;2024-01-15T02:32:23;96237.28;;;-1.57
13410;BMP180;6775;49.574;11.170;2024-01-15T02:34:51;96238.94;;;-1.56
13410;BMP180;6775;49.574;11.170;2024-01-15T02:37:19;96246.88;;;-1.49
13410;BMP180;6775;49.574;11.170;2024-01-15T02:39:48;96247.56;;;-1.45
13410;BMP180;6775;49.574;11.170;2024-01-15T02:42:17;96250.00;;;-1.44
13410;BMP180;6775;49.574;11.170;2024-01-15T02:44:45;96253.22;;;-1.42
13410;BMP180;6775;49.574;11.170;2024-01-15T02:47:15;96244.63;;;-1.38
13410;BMP180;6775;49.574;11.170;2024-01-15T02:49:43;96262.09;;;-1.35
13410;BMP180;6775;49.574;11.170;2024-01-15T02:52:11;96254.38;;;-1.32
13410;BMP180;6775;49.574;11.170;2024-01-15T02:54:40;96252.53;;;-1.28
13410;BMP180;6775;49.574;11.170;2024-01-15T02:57:08;96234.88;;;-1.28
13410;BMP180;6775;49.574;11.170;2024-01-15T02:59:37;96252.59;;;-1.30
13410;BMP180;6775;49.574;11.170;2024-01-15T03:02:05;96250.81;;;-1.28
13410;BMP180;6775;49.574;11.170;2024-01-15T03:04:34;96247.56;;;-1.30
13410;BMP180;6775;49.574;11.170;2024-01-15T03:07:02;96242.38;;;-1.27
13410;BMP180;6775;49.574;11.170;2024-01-15T03:09:30;96244.97;;;-1.28
13410;BMP180;6775;49.574;11.170;2024-01-15T03:11:58;96240.56;;;-1.25
13410;BMP180;6775;49.574;11.170;2024-01-15T03:14:26;96239.00;;;-1.12
13410;BMP180;6775;49.574;11.170;2024-01-15T03:16:56;96240.31;;;-1.05
13410;BMP180;6775;49.574;11.170;2024-01-15T03:19:24;96234.63;;;-1.08
13410;BMP180;6775;49.574;11.170;2024-01-15T03:21:52;96235.78;;;-1.14
13410;BMP180;6775;49.574;11.170;2024-01-15T03:24:22;96242.66;;;-1.17
13410;BMP180;6775;49.574;11.170;2024-01-15T03:26:50;96228.38;;;-1.17
13410;BMP180;6775;49.574;11.170;2024-01-15T03:29:18;96226.75;;;-1.18
13410;BMP180;6775;49.574;11.170;2024-01-15T03:31:46;96222.41;;;-1.16
13410;BMP180;6775;49.574;11.170;2024-01-15T03:34:16;96216.66;;;-1.18
13410;BMP180;6775;49.574;11.170;2024-01-15T03:36:44;96214.06;;;-1.16
13410;BMP180;6775;49.574;11.170;2024-01-15T03:39:12;96209.19;;;-1.19
13410;BMP180;6775;49.574;11.170;2024-01-15T03:41:41;96204.78;;;-1.16
13410;BMP180;6775;49.574;11.170;2024-01-15T03:44:09;96206.41;;;-1.15
13410;BMP180;6775;49.574;11.170;2024-01-15T03:46:37;96208.69;;;-1.10
13410;BMP180;6775;49.574;11.170;2024-01-15T03:49:05;96202.00;;;-1.11
13410;BMP180;6775;49.574;11.170;2024-01-15T03:51:35;96205.19;;;-1.08
13410;BMP180;6775;49.574;11.170;2024-01-15T03:54:03;96193.28;;;-1.06
13410;BMP180;6775;49.574;11.170;2024-01-15T03:56:31;96215.19;;;-1.06
13410;BMP180;6775;49.574;11.170;2024-01-15T03:58:59;96201.03;;;-1.09
13410;BMP180;6775;49.574;11.170;2024-01-15T04:01:27;96205.09;;;-1.06
13410;BMP180;6775;49.574;11.170;2024-01-15T04:03:56;96198.91;;;-1.01
13410;BMP180;6775;49.574;11.170;2024-01-15T04:06:24;96191.91;;;-0.96
13410;BMP180;6775;49.574;11.170;2024-01-15T04:08:54;96200.03;;;-0.91
13410;BMP180;6775;49.574;11.170;2024-01-15T04:11:22;96197.44;;;-0.90
13410;BMP180;6775;49.574;11.170;2024-01-15T04:13:50;96194.06;;;-0.90
13410;BMP180;6775;49.574;11.170;2024-01-15T04:16:18;96191.66;;;-0.92
13410;BMP180;6775;49.574;11.170;2024-01-15T04:18:47;96196.78;;;-0.93
13410;BMP180;6775;49.574;11.170;2024-01-15T04:21:17;96194.41;;;-0.96
13410;BMP180;6775;49.574;11.170;2024-01-15T04:23:45;96195.25;;;-0.96
13410;BMP180;6775;49.574;11.170;2024-01-15T04:26:15;96191.72;;;-0.93
13410;BMP180;6775;49.574;11.170;2024-01-15T04:28:43;96193.53;;;-0.95
13410;BMP180;6775;49.574;11.170;2024-01-15T04:31:22;96196.59;;;-0.90
13410;BMP180;6775;49.574;11.170;2024-01-15T04:33:50;96177.34;;;-0.91
13410;BMP180;6775;49.574;11.170;2024-01-15T04:36:19;96187.34;;;-0.90
13410;BMP180;6775;49.574;11.170;2024-01-15T04:38:47;96187.34;;;-0.90
13410;BMP180;6775;49.574;11.170;2024-01-15T04:41:17;96183.09;;;-0.89
13410;BMP180;6775;49.574;11.170;2024-01-15T04:43:46;96171.97;;;-0.85
13410;BMP180;6775;49.574;11.170;2024-01-15T04:46:14;96181.69;;;-0.79
13410;BMP180;6775;49.574;11.170;2024-01-15T04:48:42;96177.94;;;-0.72
13410;BMP180;6775;49.574;11.170;2024-01-15T04:51:10;96180.19;;;-0.68
13410;BMP180;6775;49.574;11.170;2024-01-15T04:53:39;96174.34;;;-0.68
13410;BMP180;6775;49.574;11.170;2024-01-15T04:56:07;96173.53;;;-0.69
13410;BMP180;6775;49.574;11.170;2024-01-15T04:58:36;96171.09;;;-0.70
13410;BMP180;6775;49.574;11.170;2024-01-15T05:01:04;96170.19;;;-0.69
13410;BMP180;6775;49.574;11.170;2024-01-15T05:03:33;96165.16;;;-0.69
13410;BMP180;6775;49.574;11.170;2024-01-15T05:06:01;96171.16;;;-0.72
13410;BMP180;6775;49.574;11.170;2024-01-15T05:08:29;96167.75;;;-0.71
13410;BMP180;6775;49.574;11.170;2024-01-15T05:10:58;96164.25;;;-0.68
13410;BMP180;6775;49.574;11.170;2024-01-15T05:13:26;96160.09;;;-0.69
13410;BMP180;6775;49.574;11.170;2024-01-15T05:15:56;96159.22;;;-0.68
13410;BMP180;6775;49.574;11.170;2024-01-15T05:18:24;96161.75;;;-0.68
13410;BMP180;6775;49.574;11.170;2024-01-15T05:20:52;96165.88;;;-0.67
13410;BMP180;6775;49.574;11.170;2024-01-15T05:23:20;96166.44;;;-0.62
13410;BMP180;6775;49.574;11.170;2024-01-15T05:25:49;96159.94;;;-0.66
13410;BMP180;6775;49.574;11.170;2024-01-15T05:28:17;96160.09;;;-0.69
13410;BMP180;6775;49.574;11.170;2024-01-15T05:30:45;96164.44;;;-0.71
13410;BMP180;6775;49.574;11.170;2024-01-15T05:33:15;96149.22;;;-0.70
13410;BMP180;6775;49.574;11.170;2024-01-15T05:35:43;96157.50;;;-0.68
13410;BMP180;6775;49.574;11.170;2024-01-15T05:38:12;96153.34;;;-0.69
13410;BMP180;6775;49.574;11.170;2024-01-15T05:40:40;96140.63;;;-0.67
13410;BMP180;6775;49.574;11.170;2024-01-15T05:43:08;96151.28;;;-0.62
13410;BMP180;6775;49.574;11.170;2024-01-15T05:45:38;96147.31;;;-0.66
13410;BMP180;6775;49.574;11.170;2024-01-15T05:48:11;96141.38;;;-0.65
13410;BMP180;6775;49.574;11.170;2024-01-15T05:50:42;96146.25;;;-0.62
13410;BMP180;6775;49.574;11.170;2024-01-15T05:53:10;96145.97;;;-0.58
13410;BMP180;6775;49.574;11.170;2024-01-15T05:55:38;96148.59;;;-0.59
13410;BMP180;6775;49.574;11.170;2024-01-15T05:58:06;96151.13;;;-0.59
13410;BMP180;6775;49.574;11.170;2024-01-15T06:00:34;96141.03;;;-0.59
13410;BMP180;6775;49.574;11.170;2024-01-15T06:03:06;96145.97;;;-0.58
13410;BMP180;6775;49.574;11.170;2024-01-15T06:05:33;96142.31;;;-0.52
13410;BMP180;6775;49.574;11.170;2024-01-15T06:08:03;96139.78;;;-0.52
13410;BMP180;6775;49.574;11.170;2024-01-15T06:10:31;96139.88;;;-0.54
13410;BMP180;6775;49.574;11.170;2024-01-15T06:12:59;96139.69;;;-0.51
13410;BMP180;6775;49.574;11.170;2024-01-15T06:15:27;96138.84;;;-0.52
13410;BMP180;6775;49.574;11.170;2024-01-15T06:17:55;96149.03;;;-0.53
13410;BMP180;6775;49.574;11.170;2024-01-15T06:20:24;96140.84;;;-0.56
13410;BMP180;6775;49.574;11.170;2024-01-15T06:22:52;96141.03;;;-0.59
13410;BMP180;6775;49.574;11.170;2024-01-15T06:25:21;96150.13;;;-0.57
13410;BMP180;6775;49.574;11.170;2024-01-15T06:27:49;96153.28;;;-0.53
13410;BMP180;6775;49.574;11.170;2024-01-15T06:30:18;96148.94;;;-0.52
13410;BMP180;6775;49.574;11.170;2024-01-15T06:32:46;96152.41;;;-0.52
13410;BMP180;6775;49.574;11.170;2024-01-15T06:35:15;96152.41;;;-0.52
13410;BMP180;6775;49.574;11.170;2024-01-15T06:37:45;96149.88;;;-0.52
13410;BMP180;6775;49.574;11.170;2024-01-15T06:40:13;96146.59;;;-0.54
13410;BMP180;6775;49.574;11.170;2024-01-15T06:42:43;96140.84;;;-0.56
13410;BMP180;6775;49.574;11.170;2024-01-15T06:45:11;96140.03;;;-0.57
13410;BMP180;6775;49.574;11.170;2024-01-15T06:47:39;96145.91;;;-0.56
13410;BMP180;6775;49.574;11.170;2024-01-15T06:50:09;96146.69;;;-0.56
13410;BMP180;6775;49.574;11.170;2024-01-15T06:52:37;96145.91;;;-0.56
13410;BMP180;6775;49.574;11.170;2024-01-15T06:55:06;96150.06;;;-0.55
13410;BMP180;6775;49.574;11.170;2024-01-15T06:57:35;96144.25;;;-0.57
13410;BMP180;6775;49.574;11.170;2024-01-15T07:00:06;96145.19;;;-0.58
13410;BMP180;6775;49.574;11.170;2024-01-15T07:02:35;96138.31;;;-0.56
13410;BMP180;6775;49.574;11.170;2024-01-15T07:05:04;96150.75;;;-0.53
13410;BMP180;6775;49.574;11.170;2024-01-15T07:07:33;96148.94;;;-0.52
13410;BMP180;6775;49.574;11.170;2024-01-15T07:10:01;96144.56;;;-0.48
13410;BMP180;6775;49.574;11.170;2024-01-15T07:12:30;96148.81;;;-0.49
13410;BMP180;6775;49.574;11.170;2024-01-15T07:14:58;96156.19;;;-0.46
13410;BMP180;6775;49.574;11.170;2024-01-15T07:17:28;96151.69;;;-0.41
13410;BMP180;6775;49.574;11.170;2024-01-15T07:19:56;96151.59;;;-0.39
13410;BMP180;6775;49.574;11.170;2024-01-15T07:22:24;96151.31;;;-0.35
13410;BMP180;6775;49.574;11.170;2024-01-15T07:24:52;96157.91;;;-0.32
13410;BMP180;6775;49.574;11.170;2024-01-15T07:27:21;96164.69;;;-0.33
13410;BMP180;6775;49.574;11.170;2024-01-15T07:29:49;96157.81;;;-0.31
13410;BMP180;6775;49.574;11.170;2024-01-15T07:32:19;96152.94;;;-0.34
13410;BMP180;6775;49.574;11.170;2024-01-15T07:34:48;96160.72;;;-0.37
13410;BMP180;6775;49.574;11.170;2024-01-15T07:37:17;96167.63;;;-0.40
13410;BMP180;6775;49.574;11.170;2024-01-15T07:39:45;96169.44;;;-0.42
13410;BMP180;6775;49.574;11.170;2024-01-15T07:42:13;96169.53;;;-0.44
13410;BMP180;6775;49.574;11.170;2024-01-15T07:44:41;96171.88;;;-0.41
13410;BMP180;6775;49.574;11.170;2024-01-15T07:47:10;96176.91;;;-0.41
13410;BMP180;6775;49.574;11.170;2024-01-15T07:49:38;96170.81;;;-0.37
13410;BMP180;6775;49.574;11.170;2024-01-15T07:52:08;96182.69;;;-0.39
13410;BMP180;6775;49.574;11.170;2024-01-15T07:54:36;96190.25;;;-0.39
13410;BMP180;6775;49.574;11.170;2024-01-15T07:57:05;96180.06;;;-0.37
13410;BMP180;6775;49.574;11.170;2024-01-15T07:59:34;96179.00;;;-0.33
13410;BMP180;6775;49.574;11.170;2024-01-15T08:02:03;96175.09;;;-0.39
13410;BMP180;6775;49.574;11.170;2024-01-15T08:04:31;96173.31;;;-0.37
13410;BMP180;6775;49.574;11.170;2024-01-15T08:07:00;96170.53;;;-0.32
13410;BMP180;6775;49.574;11.170;2024-01-15T08:09:28;96172.59;;;-0.25
13410;BMP180;6775;49.574;11.170;2024-01-15T08:11:57;96179.47;;;-0.27
13410;BMP180;6775;49.574;11.170;2024-01-15T08:14:25;96169.47;;;-0.28
13410;BMP180;6775;49.574;11.170;2024-01-15T08:16:53;96168.53;;;-0.27
13410;BMP180;6775;49.574;11.170;2024-01-15T08:19:21;96167.66;;;-0.26
13410;BMP180;6775;49.574;11.170;2024-01-15T08:21:49;96170.66;;;-0.20
13410;BMP180;6775;49.574;11.170;2024-01-15T08:24:18;96176.50;;;-0.19
13410;BMP180;6775;49.574;11.170;2024-01-15T08:26:47;96174.06;;;-0.21
13410;BMP180;6775;49.574;11.170;2024-01-15T08:29:15;96177.19;;;-0.17
13410;BMP180;6775;49.574;11.170;2024-01-15T08:31:45;96171.06;;;-0.13
13410;BMP180;6775;49.574;11.170;2024-01-15T08:34:14;96167.28;;;-0.06
13410;BMP180;6775;49.574;11.170;2024-01-15T08:36:42;96167.13;;;-0.03
13410;BMP180;6775;49.574;11.170;2024-01-15T08:39:10;96178.75;;;-0.01
13410;BMP180;6775;49.574;11.170;2024-01-15T08:41:38;96181.09;;;0.02
13410;BMP180;6775;49.574;11.170;2024-01-15T08:44:08;96179.28;;;0.04
13410;BMP180;6775;49.574;11.170;2024-01-15T08:46:36;96176.06;;;0.02
13410;BMP180;6775;49.574;11.170;2024-01-15T08:49:04;96173.63;;;0.00
13410;BMP180;6775;49.574;11.170;2024-01-15T08:51:32;96177.13;;;-0.02
13410;BMP180;6775;49.574;11.170;2024-01-15T08:54:01;96177.69;;;0.03
13410;BMP180;6775;49.574;11.170;2024-01-15T08:56:29;96177.50;;;0.06
13410;BMP180;6775;49.574;11.170;2024-01-15T08:58:57;96172.34;;;0.07
13410;BMP180;6775;49.574;11.170;2024-01-15T09:01:26;96177.13;;;0.12
13410;BMP180;6775;49.574;11.170;2024-01-15T09:03:55;96177.94;;;0.12
13410;BMP180;6775;49.574;11.170;2024-01-15T09:06:23;96182.00;;;0.15
13410;BMP180;6775;49.574;11.170;2024-01-15T09:08:52;96178.56;;;0.16
13410;BMP180;6775;49.574;11.170;2024-01-15T09:11:20;96176.06;;;0.16
13410;BMP180;6775;49.574;11.170;2024-01-15T09:13:48;96179.47;;;0.15
13410;BMP180;6775;49.574;11.170;2024-01-15T09:16:16;96177.56;;;0.18
13410;BMP180;6775;49.574;11.170;2024-01-15T09:18:46;96177.56;;;0.18
13410;BMP180;6775;49.574;11.170;2024-01-15T09:21:14;96159.25;;;0.29
13410;BMP180;6775;49.574;11.170;2024-01-15T09:23:42;96168.81;;;0.38
13410;BMP180;6775;49.574;11.170;2024-01-15T09:26:11;96171.56;;;0.47
13410;BMP180;6775;49.574;11.170;2024-01-15T09:28:39;96167.66;;;0.55
13410;BMP180;6775;49.574;11.170;2024-01-15T09:31:07;96164.06;;;0.59
13410;BMP180;6775;49.574;11.170;2024-01-15T09:33:35;96151.97;;;0.64
13410;BMP180;6775;49.574;11.170;2024-01-15T09:36:06;96159.88;;;0.72
13410;BMP180;6775;49.574;11.170;2024-01-15T09:38:34;96158.88;;;0.75
13410;BMP180;6775;49.574;11.170;2024-01-15T09:41:03;96163.13;;;0.74
13410;BMP180;6775;49.574;11.170;2024-01-15T09:43:33;96168.53;;;0.68
13410;BMP180;6775;49.574;11.170;2024-01-15T09:46:01;96176.59;;;0.61
13410;BMP180;6775;49.574;11.170;2024-01-15T09:48:30;96174.25;;;0.58
13410;BMP180;6775;49.574;11.170;2024-01-15T09:51:01;96165.88;;;0.57
13410;BMP180;6775;49.574;11.170;2024-01-15T09:53:32;96183.56;;;0.57
13410;BMP180;6775;49.574;11.170;2024-01-15T09:56:01;96176.97;;;0.55
13410;BMP180;6775;49.574;11.170;2024-01-15T09:58:30;96177.69;;;0.57
13410;BMP180;6775;49.574;11.170;2024-01-15T10:00:59;96179.03;;;0.62
13410;BMP180;6775;49.574;11.170;2024-01-15T10:03:34;96177.34;;;0.63
13410;BMP180;6775;49.574;11.170;2024-01-15T10:06:04;96180.66;;;0.63
13410;BMP180;6775;49.574;11.170;2024-01-15T10:08:36;96177.06;;;0.67
13410;BMP180;6775;49.574;11.170;2024-01-15T10:11:04;96171.06;;;0.68
13410;BMP180;6775;49.574;11.170;2024-01-15T10:13:33;96163.66;;;0.65
13410;BMP180;6775;49.574;11.170;2024-01-15T10:16:02;96162.06;;;0.64
13410;BMP180;6775;49.574;11.170;2024-01-15T10:18:31;96152.47;;;0.69
13410;BMP180;6775;49.574;11.170;2024-01-15T10:20:59;96150.75;;;0.70
13410;BMP180;6775;49.574;11.170;2024-01-15T10:23:28;96155.81;;;0.70
13410;BMP180;6775;49.574;11.170;2024-01-15T10:25:58;96148.13;;;0.71
13410;BMP180;6775;49.574;11.170;2024-01-15T10:28:26;96144.69;;;0.72
13410;BMP180;6775;49.574;11.170;2024-01-15T10:30:58;96133.50;;;0.76
13410;BMP180;6775;49.574;11.170;2024-01-15T10:33:28;96130.78;;;0.79
13410;BMP180;6775;49.574;11.170;2024-01-15T10:35:59;96118.91;;;0.80
13410;BMP180;6775;49.574;11.170;2024-01-15T10:38:28;96121.25;;;0.83
13410;BMP180;6775;49.574;11.170;2024-01-15T10:40:57;96124.31;;;0.88
13410;BMP180;6775;49.574;11.170;2024-01-15T10:43:25;96118.28;;;0.90
13410;BMP180;6775;49.574;11.170;2024-01-15T10:45:55;96121.78;;;0.88
13410;BMP180;6775;49.574;11.170;2024-01-15T10:48:24;96124.22;;;0.89
13410;BMP180;6775;49.574;11.170;2024-01-15T10:50:56;96113.13;;;0.92
13410;BMP180;6775;49.574;11.170;2024-01-15T10:53:24;96117.25;;;0.93
13410;BMP180;6775;49.574;11.170;2024-01-15T10:55:53;96113.63;;;0.97
13410;BMP180;6775;49.574;11.170;2024-01-15T10:58:23;96107.97;;;0.93
13410;BMP180;6775;49.574;11.170;2024-01-15T11:00:52;96108.25;;;0.89
13410;BMP180;6775;49.574;11.170;2024-01-15T11:03:21;96100.03;;;0.85
13410;BMP180;6775;49.574;11.170;2024-01-15T11:05:50;96105.28;;;0.82
13410;BMP180;6775;49.574;11.170;2024-01-15T11:08:18;96105.28;;;0.82
13410;BMP180;6775;49.574;11.170;2024-01-15T11:10:48;96109.53;;;0.82
13410;BMP180;6775;49.574;11.170;2024-01-15T11:13:22;96096.81;;;0.83
13410;BMP180;6775;49.574;11.170;2024-01-15T11:15:56;96091.09;;;0.80
13410;BMP180;6775;49.574;11.170;2024-01-15T11:18:23;96091.75;;;0.83
13410;BMP180;6775;49.574;11.170;2024-01-15T11:21:23;96082.88;;;0.90
13410;BMP180;6775;49.574;11.170;2024-01-15T11:23:54;96095.00;;;0.98
13410;BMP180;6775;49.574;11.170;2024-01-15T11:26:34;96089.47;;;1.05
13410;BMP180;6775;49.574;11.170;2024-01-15T11:29:05;96095.31;;;1.05
13410;BMP180;6775;49.574;11.170;2024-01-15T11:31:58;96085.94;;;1.07
13410;BMP180;6775;49.574;11.170;2024-01-15T11:34:56;96076.09;;;1.15
13410;BMP180;6775;49.574;11.170;2024-01-15T11:37:28;96073.47;;;1.17
13410;BMP180;6775;49.574;11.170;2024-01-15T11:40:02;96079.06;;;1.22
13410;BMP180;6775;49.574;11.170;2024-01-15T11:42:31;96075.31;;;1.15
13410;BMP180;6775;49.574;11.170;2024-01-15T11:45:02;96078.03;;;1.12
13410;BMP180;6775;49.574;11.170;2024-01-15T11:48:12;96073.19;;;1.09
13410;BMP180;6775;49.574;11.170;2024-01-15T11:50:44;96083.59;;;1.04
13410;BMP180;6775;49.574;11.170;2024-01-15T11:53:32;96080.97;;;1.06
13410;BMP180;6775;49.574;11.170;2024-01-15T11:56:03;96080.88;;;1.07
13410;BMP180;6775;49.574;11.170;2024-01-15T11:58:35;96074.19;;;1.06
13410;BMP180;6775;49.574;11.170;2024-01-15T12:01:05;96074.97;;;1.07
13410;BMP180;6775;49.574;11.170;2024-01-15T12:03:34;96074.88;;;1.08
13410;BMP180;6775;49.574;11.170;2024-01-15T12:06:05;96071.34;;;1.11
13410;BMP180;6775;49.574;11.170;2024-01-15T12:08:33;96078.03;;;1.12
13410;BMP180;6775;49.574;11.170;2024-01-15T12:11:06;96076.22;;;1.14
13410;BMP180;6775;49.574;11.170;2024-01-15T12:13:36;96079.47;;;1.16
13410;BMP180;6775;49.574;11.170;2024-01-15T12:16:06;96075.09;;;1.18
13410;BMP180;6775;49.574;11.170;2024-01-15T12:18:34;96067.63;;;1.16
13410;BMP180;6775;49.574;11.170;2024-01-15T12:21:04;96055.28;;;1.12
13410;BMP180;6775;49.574;11.170;2024-01-15T12:23:34;96058.19;;;1.06
13410;BMP180;6775;49.574;11.170;2024-01-15T12:26:02;96065.75;;;0.94
13410;BMP180;6775;49.574;11.170;2024-01-15T12:28:30;96058.28;;;0.92
13410;BMP180;6775;49.574;11.170;2024-01-15T12:30:59;96068.28;;;0.94
13410;BMP180;6775;49.574;11.170;2024-01-15T12:33:33;96079.00;;;0.97
13410;BMP180;6775;49.574;11.170;2024-01-15T12:36:02;96086.69;;;0.96
13410;BMP180;6775;49.574;11.170;2024-01-15T12:38:31;96077.63;;;0.93
13410;BMP180;6775;49.574;11.170;2024-01-15T12:41:00;96070.91;;;0.92
13410;BMP180;6775;49.574;11.170;2024-01-15T12:43:28;96066.75;;;0.91
13410;BMP180;6775;49.574;11.170;2024-01-15T12:45:57;96073.25;;;0.95
13410;BMP180;6775;49.574;11.170;2024-01-15T12:48:25;96065.25;;;1.01
13410;BMP180;6775;49.574;11.170;2024-01-15T12:50:55;96056.09;;;1.00
13410;BMP180;6775;49.574;11.170;2024-01-15T12:53:23;96068.31;;;1.06
13410;BMP180;6775;49.574;11.170;2024-01-15T12:55:52;96072.25;;;1.10
13410;BMP180;6775;49.574;11.170;2024-01-15T12:58:20;96063.75;;;1.11
13410;BMP180;6775;49.574;11.170;2024-01-15T13:00:48;96063.06;;;1.09
13410;BMP180;6775;49.574;11.170;2024-01-15T13:03:16;96059.00;;;1.06
13410;BMP180;6775;49.574;11.170;2024-01-15T13:05:45;96062.34;;;1.07
13410;BMP180;6775;49.574;11.170;2024-01-15T13:08:15;96063.97;;;1.08
13410;BMP180;6775;49.574;11.170;2024-01-15T13:10:43;96071.56;;;1.08
13410;BMP180;6775;49.574;11.170;2024-01-15T13:13:11;96069.56;;;1.13
13410;BMP180;6775;49.574;11.170;2024-01-15T13:15:40;96077.31;;;1.10
13410;BMP180;6775;49.574;11.170;2024-01-15T13:18:09;96073.28;;;1.07
13410;BMP180;6775;49.574;11.170;2024-01-15T13:20:37;96080.78;;;1.09
13410;BMP180;6775;49.574;11.170;2024-01-15T13:23:05;96078.44;;;1.06
13410;BMP180;6775;49.574;11.170;2024-01-15T13:25:35;96063.56;;;1.01
13410;BMP180;6775;49.574;11.170;2024-01-15T13:28:06;96069.44;;;1.02
13410;BMP180;6775;49.574;11.170;2024-01-15T13:30:34;96067.28;;;0.96
13410;BMP180;6775;49.574;11.170;2024-01-15T13:33:03;96067.28;;;0.96
13410;BMP180;6775;49.574;11.170;2024-01-15T13:35:32;96062.03;;;0.99
13410;BMP180;6775;49.574;11.170;2024-01-15T13:38:00;96068.53;;;1.03
13410;BMP180;6775;49.574;11.170;2024-01-15T13:40:28;96058.19;;;1.06
13410;BMP180;6775;49.574;11.170;2024-01-15T13:42:58;96050.41;;;1.09
13410;BMP180;6775;49.574;11.170;2024-01-15T13:45:26;96056.38;;;1.08
13410;BMP180;6775;49.574;11.170;2024-01-15T13:47:54;96057.47;;;1.04
13410;BMP180;6775;49.574;11.170;2024-01-15T13:50:22;96057.47;;;1.04
13410;BMP180;6775;49.574;11.170;2024-01-15T13:52:52;96064.16;;;1.05
13410;BMP180;6775;49.574;11.170;2024-01-15T13:55:20;96065.06;;;1.04
13410;BMP180;6775;49.574;11.170;2024-01-15T13:57:48;96057.28;;;1.07
13410;BMP180;6775;49.574;11.170;2024-01-15T14:00:18;96069.94;;;1.07
13410;BMP180;6775;49.574;11.170;2024-01-15T14:02:47;96066.25;;;0.98
13410;BMP180;6775;49.574;11.170;2024-01-15T14:05:15;96069.81;;;0.96
13410;BMP180;6775;49.574;11.170;2024-01-15T14:07:43;96067.28;;;0.96
13410;BMP180;6775;49.574;11.170;2024-01-15T14:10:12;96054.66;;;0.96
13410;BMP180;6775;49.574;11.170;2024-01-15T14:12:40;96069.28;;;0.91
13410;BMP180;6775;49.574;11.170;2024-01-15T14:15:09;96068.50;;;0.91
13410;BMP180;6775;49.574;11.170;2024-01-15T14:17:38;96069.19;;;0.93
13410;BMP180;6775;49.574;11.170;2024-01-15T14:20:08;96075.09;;;0.93
13410;BMP180;6775;49.574;11.170;2024-01-15T14:22:37;96070.72;;;0.95
13410;BMP180;6775;49.574;11.170;2024-01-15T14:25:06;96062.53;;;0.92